Time;durP1;ratioP1;P1;durP2;ratioP2;P2;SDS_P1;SDS_P2;PMS_P1;PMS_P2;Temp;Humidity;BMP_temperature;BMP_pressure;BME280_temperature;BME280_humidity;BME280_pressure;Samples;Min_cycle;Max_cycle;Signal;HPM_P1;HPM_P2
2022/03/15 00:00:28;;;;;;;1.73;1.60;;;;;;;;;;5075086;28;20661;-85
2022/03/15 00:02:57;;;;;;;2.95;2.38;;;;;;;;;;5076928;28;20227;-84
2022/03/15 00:05:25;;;;;;;1.70;1.60;;;;;;;;;;5061406;28;20205;-85
2022/03/15 00:07:59;;;;;;;2.00;1.90;;;;;;;;;;5058948;28;20221;-85
2022/03/15 00:10:28;;;;;;;3.00;1.88;;;;;;;;;;5058871;28;20192;-85
2022/03/15 00:12:56;;;;;;;1.83;1.70;;;;;;;;;;5058989;28;20201;-85
2022/03/15 00:15:24;;;;;;;2.60;1.30;;;;;;;;;;5058932;28;20271;-86
2022/03/15 00:17:53;;;;;;;1.80;1.70;;;;;;;;;;5058148;28;20214;-85
2022/03/15 00:20:23;;;;;;;1.80;1.70;;;;;;;;;;5058635;28;20224;-85
2022/03/15 00:22:55;;;;;;;2.28;1.63;;;;;;;;;;5058292;28;20659;-86
2022/03/15 00:25:23;;;;;;;2.10;1.75;;;;;;;;;;5057886;28;20198;-85
2022/03/15 00:27:52;;;;;;;1.33;1.23;;;;;;;;;;5057871;28;20225;-85
2022/03/15 00:30:20;;;;;;;1.98;1.88;;;;;;;;;;5058174;28;20225;-85
2022/03/15 00:32:48;;;;;;;1.40;1.30;;;;;;;;;;5057838;28;20198;-86
2022/03/15 00:35:18;;;;;;;1.48;1.38;;;;;;;;;;5057965;28;20263;-84
2022/03/15 00:37:48;;;;;;;1.50;1.40;;;;;;;;;;5057826;28;20222;-85
2022/03/15 00:40:16;;;;;;;1.85;1.75;;;;;;;;;;5058499;28;20209;-84
2022/03/15 00:42:50;;;;;;;1.60;1.50;;;;;;;;;;5057535;28;20352;-84
2022/03/15 00:45:18;;;;;;;2.20;2.00;;;;;;;;;;5057883;28;20256;-85
2022/03/15 00:47:46;;;;;;;1.63;1.52;;;;;;;;;;5057636;28;20244;-85
2022/03/15 00:50:14;;;;;;;1.70;1.40;;;;;;;;;;5057722;28;20217;-86
2022/03/15 00:52:41;;;;;;;2.22;2.03;;;;;;;;;;5057520;28;20221;-85
2022/03/15 00:55:11;;;;;;;1.83;1.73;;;;;;;;;;5057421;28;20685;-85
2022/03/15 00:57:38;;;;;;;2.20;2.00;;;;;;;;;;5057591;28;20248;-85
2022/03/15 01:00:08;;;;;;;3.33;1.50;;;;;;;;;;5058043;28;20205;-84
2022/03/15 01:02:36;;;;;;;1.75;1.65;;;;;;;;;;5056450;28;20741;-84
2022/03/15 01:05:04;;;;;;;1.98;1.77;;;;;;;;;;5042427;28;20202;-84
2022/03/15 01:07:32;;;;;;;1.65;1.55;;;;;;;;;;5037341;28;20230;-85
2022/03/15 01:09:59;;;;;;;1.27;1.25;;;;;;;;;;5037650;28;20277;-84
2022/03/15 01:12:28;;;;;;;1.55;1.45;;;;;;;;;;5037400;28;20202;-86
2022/03/15 01:14:55;;;;;;;1.90;1.75;;;;;;;;;;5035927;28;20694;-85
2022/03/15 01:17:23;;;;;;;1.83;1.60;;;;;;;;;;5037385;28;20219;-86
2022/03/15 01:19:51;;;;;;;1.92;1.50;;;;;;;;;;5037023;28;20210;-86
2022/03/15 01:22:18;;;;;;;1.40;1.30;;;;;;;;;;5036614;28;20222;-84
2022/03/15 01:24:47;;;;;;;1.60;1.50;;;;;;;;;;5036790;28;20198;-85
2022/03/15 01:27:15;;;;;;;1.55;1.45;;;;;;;;;;5037017;28;20253;-85
2022/03/15 01:29:44;;;;;;;1.55;1.45;;;;;;;;;;5037375;28;20198;-84
2022/03/15 01:32:12;;;;;;;1.63;1.35;;;;;;;;;;5036872;28;20202;-85
2022/03/15 01:34:39;;;;;;;1.65;1.55;;;;;;;;;;5048015;28;20670;-86
2022/03/15 01:37:07;;;;;;;1.58;1.48;;;;;;;;;;5056456;28;20205;-86
2022/03/15 01:39:35;;;;;;;2.25;2.05;;;;;;;;;;5056354;28;20676;-84
2022/03/15 01:42:03;;;;;;;1.10;1.10;;;;;;;;;;5056550;28;20227;-85
2022/03/15 01:44:33;;;;;;;1.40;1.30;;;;;;;;;;5056409;28;20205;-84
2022/03/15 01:47:02;;;;;;;1.20;1.20;;;;;;;;;;5056333;28;20213;-84
2022/03/15 01:49:30;;;;;;;1.40;1.30;;;;;;;;;;5056550;28;20205;-84
2022/03/15 01:51:58;;;;;;;1.23;1.13;;;;;;;;;;5056249;28;20289;-85
2022/03/15 01:54:25;;;;;;;1.08;1.08;;;;;;;;;;5055848;28;20190;-84
2022/03/15 01:56:52;;;;;;;1.50;1.40;;;;;;;;;;5056022;28;20190;-86
2022/03/15 01:59:20;;;;;;;1.45;1.35;;;;;;;;;;5056435;28;20209;-86
2022/03/15 02:01:48;;;;;;;1.38;1.20;;;;;;;;;;5055710;28;20212;-84
2022/03/15 02:04:17;;;;;;;1.13;1.13;;;;;;;;;;5055959;28;20219;-84
2022/03/15 02:06:45;;;;;;;1.60;1.50;;;;;;;;;;5056066;28;20209;-85
2022/03/15 02:09:15;;;;;;;1.17;1.13;;;;;;;;;;5055864;28;20690;-85
2022/03/15 02:11:44;;;;;;;2.20;1.40;;;;;;;;;;5055905;28;20194;-84
2022/03/15 02:14:12;;;;;;;1.67;1.50;;;;;;;;;;5055462;28;20228;-85
2022/03/15 02:16:39;;;;;;;1.55;1.45;;;;;;;;;;5055768;28;20288;-85
2022/03/15 02:19:07;;;;;;;1.70;1.60;;;;;;;;;;5058307;28;20275;-83
2022/03/15 02:21:36;;;;;;;2.10;2.00;;;;;;;;;;5066225;28;20206;-83
2022/03/15 02:24:05;;;;;;;1.65;1.55;;;;;;;;;;5066799;28;20225;-84
2022/03/15 02:26:33;;;;;;;1.23;1.13;;;;;;;;;;5066026;28;20213;-83
2022/03/15 02:29:00;;;;;;;1.90;1.48;;;;;;;;;;5066924;28;20684;-83
2022/03/15 02:31:27;;;;;;;3.05;1.30;;;;;;;;;;5064734;28;20206;-84
2022/03/15 02:33:54;;;;;;;1.67;1.58;;;;;;;;;;5065018;28;20205;-84
2022/03/15 02:36:22;;;;;;;1.48;1.38;;;;;;;;;;5065574;28;20209;-84
2022/03/15 02:38:51;;;;;;;1.10;1.10;;;;;;;;;;5065486;28;20232;-83
2022/03/15 02:41:18;;;;;;;1.10;1.10;;;;;;;;;;5065841;28;20274;-82
2022/03/15 02:43:47;;;;;;;1.65;1.42;;;;;;;;;;5065654;28;20664;-82
2022/03/15 02:46:15;;;;;;;2.00;1.63;;;;;;;;;;5063923;28;20197;-82
2022/03/15 02:48:43;;;;;;;1.50;1.40;;;;;;;;;;5064762;28;20713;-83
2022/03/15 02:51:11;;;;;;;1.45;1.35;;;;;;;;;;5064201;28;20202;-84
2022/03/15 02:53:38;;;;;;;1.70;1.60;;;;;;;;;;5064386;28;20197;-83
2022/03/15 02:56:11;;;;;;;2.28;2.08;;;;;;;;;;5065320;28;20213;-83
2022/03/15 02:58:39;;;;;;;1.52;1.42;;;;;;;;;;5065177;28;20229;-83
2022/03/15 03:01:06;;;;;;;1.98;1.20;;;;;;;;;;5065419;28;20197;-84
2022/03/15 03:03:34;;;;;;;1.85;1.50;;;;;;;;;;5064795;28;20225;-83
2022/03/15 03:06:02;;;;;;;1.00;1.00;;;;;;;;;;5065139;28;20198;-83
2022/03/15 03:08:30;;;;;;;1.38;1.00;;;;;;;;;;5065280;28;20232;-83
2022/03/15 03:10:58;;;;;;;1.08;1.00;;;;;;;;;;5064650;28;20209;-83
2022/03/15 03:13:27;;;;;;;0.90;0.90;;;;;;;;;;5065203;28;20208;-83
2022/03/15 03:15:57;;;;;;;1.20;1.17;;;;;;;;;;5065650;28;20564;-83
2022/03/15 03:18:25;;;;;;;0.80;0.80;;;;;;;;;;5066072;28;20233;-84
2022/03/15 03:20:53;;;;;;;0.73;0.73;;;;;;;;;;5065703;28;20233;-83
2022/03/15 03:23:20;;;;;;;0.80;0.80;;;;;;;;;;5064546;28;20289;-84
2022/03/15 03:25:48;;;;;;;1.20;1.10;;;;;;;;;;5064643;28;20223;-82
2022/03/15 03:28:16;;;;;;;0.80;0.80;;;;;;;;;;5065160;28;20225;-83
2022/03/15 03:30:47;;;;;;;0.60;0.60;;;;;;;;;;5064845;28;20237;-83
2022/03/15 03:33:15;;;;;;;0.90;0.90;;;;;;;;;;5065445;28;20194;-83
2022/03/15 03:35:43;;;;;;;0.70;0.70;;;;;;;;;;5065402;28;20273;-83
2022/03/15 03:38:11;;;;;;;0.98;0.80;;;;;;;;;;5064217;28;20218;-83
2022/03/15 03:40:38;;;;;;;0.70;0.70;;;;;;;;;;5064548;28;20749;-83
2022/03/15 03:43:07;;;;;;;0.85;0.85;;;;;;;;;;5063651;28;20213;-83
2022/03/15 03:45:36;;;;;;;0.90;0.90;;;;;;;;;;5063911;28;20201;-83
2022/03/15 03:48:07;;;;;;;0.98;0.80;;;;;;;;;;5063352;28;20232;-83
2022/03/15 03:50:35;;;;;;;1.15;1.05;;;;;;;;;;5064408;28;20213;-84
2022/03/15 03:53:03;;;;;;;1.00;1.00;;;;;;;;;;5063003;28;20288;-83
2022/03/15 03:55:30;;;;;;;0.88;0.88;;;;;;;;;;5063553;28;20232;-81
2022/03/15 03:57:58;;;;;;;1.27;0.98;;;;;;;;;;5063753;28;20228;-83
2022/03/15 04:00:26;;;;;;;0.80;0.80;;;;;;;;;;5064448;28;20212;-83
2022/03/15 04:02:57;;;;;;;0.90;0.90;;;;;;;;;;5064111;28;20206;-84
2022/03/15 04:05:28;;;;;;;0.70;0.70;;;;;;;;;;5063940;28;20201;-83
2022/03/15 04:07:55;;;;;;;1.30;1.20;;;;;;;;;;5063639;28;20240;-83
2022/03/15 04:10:22;;;;;;;1.73;1.63;;;;;;;;;;5064721;28;20224;-83
2022/03/15 04:12:50;;;;;;;1.67;1.58;;;;;;;;;;5063904;28;20209;-83
2022/03/15 04:15:18;;;;;;;1.52;1.35;;;;;;;;;;5065892;28;20205;-83
2022/03/15 04:17:45;;;;;;;1.02;1.00;;;;;;;;;;5065531;28;20221;-83
2022/03/15 04:20:13;;;;;;;1.70;1.60;;;;;;;;;;5064712;28;20269;-82
2022/03/15 04:22:41;;;;;;;1.60;1.50;;;;;;;;;;5063086;28;20744;-82
2022/03/15 04:25:10;;;;;;;1.08;1.08;;;;;;;;;;5063899;28;20225;-82
2022/03/15 04:27:38;;;;;;;1.75;1.65;;;;;;;;;;5063595;28;20264;-83
2022/03/15 04:30:07;;;;;;;1.77;1.67;;;;;;;;;;5063899;28;20202;-82
2022/03/15 04:32:34;;;;;;;1.70;1.60;;;;;;;;;;5063608;28;20198;-83
2022/03/15 04:35:02;;;;;;;1.92;1.60;;;;;;;;;;5063221;28;20232;-84
2022/03/15 04:37:29;;;;;;;1.20;1.20;;;;;;;;;;5061647;28;20223;-82
2022/03/15 04:39:58;;;;;;;1.50;1.40;;;;;;;;;;5064035;28;20232;-83
2022/03/15 04:42:27;;;;;;;2.25;1.52;;;;;;;;;;5063363;28;20209;-82
2022/03/15 04:44:54;;;;;;;1.50;1.40;;;;;;;;;;5064852;28;20697;-82
2022/03/15 04:47:22;;;;;;;1.30;1.20;;;;;;;;;;5064264;28;20711;-82
2022/03/15 04:49:49;;;;;;;1.50;1.40;;;;;;;;;;5065351;28;20228;-83
2022/03/15 04:52:17;;;;;;;1.95;1.80;;;;;;;;;;5069864;28;20670;-83
2022/03/15 04:54:45;;;;;;;1.70;1.60;;;;;;;;;;5070499;28;20578;-84
2022/03/15 04:57:14;;;;;;;2.38;2.17;;;;;;;;;;5068295;28;20209;-83
2022/03/15 04:59:41;;;;;;;1.92;1.80;;;;;;;;;;5068613;28;20269;-81
2022/03/15 05:02:09;;;;;;;1.52;1.42;;;;;;;;;;5067414;28;20208;-84
2022/03/15 05:04:36;;;;;;;1.40;1.30;;;;;;;;;;5067549;28;20292;-82
2022/03/15 05:07:04;;;;;;;1.98;1.85;;;;;;;;;;5068225;28;20227;-82
2022/03/15 05:09:32;;;;;;;2.15;2.05;;;;;;;;;;5068373;28;20198;-81
2022/03/15 05:11:59;;;;;;;1.75;1.65;;;;;;;;;;5067216;28;20292;-83
2022/03/15 05:14:27;;;;;;;2.35;2.15;;;;;;;;;;5067993;28;20681;-81
2022/03/15 05:16:55;;;;;;;2.00;1.90;;;;;;;;;;5067621;28;20324;-83
2022/03/15 05:19:22;;;;;;;2.50;2.30;;;;;;;;;;5069087;28;20225;-83
2022/03/15 05:21:50;;;;;;;1.95;1.77;;;;;;;;;;5068169;28;20212;-82
2022/03/15 05:24:17;;;;;;;2.20;2.00;;;;;;;;;;5068292;28;20218;-83
2022/03/15 05:26:44;;;;;;;2.28;2.08;;;;;;;;;;5068229;28;20208;-81
2022/03/15 05:29:12;;;;;;;2.15;1.70;;;;;;;;;;5067107;28;20271;-82
2022/03/15 05:31:41;;;;;;;2.30;2.20;;;;;;;;;;5066454;28;20686;-82
2022/03/15 05:34:08;;;;;;;1.88;1.77;;;;;;;;;;5066758;28;20206;-82
2022/03/15 05:36:35;;;;;;;2.72;2.53;;;;;;;;;;5067383;28;20689;-85
2022/03/15 05:39:03;;;;;;;2.33;2.13;;;;;;;;;;5066787;28;20728;-85
2022/03/15 05:41:30;;;;;;;2.25;2.15;;;;;;;;;;5067060;28;20198;-83
2022/03/15 05:43:57;;;;;;;2.30;2.20;;;;;;;;;;5066628;28;20210;-83
2022/03/15 05:46:25;;;;;;;2.03;1.92;;;;;;;;;;5065654;28;20204;-80
2022/03/15 05:48:56;;;;;;;2.50;2.40;;;;;;;;;;5060034;28;20222;-80
2022/03/15 05:51:23;;;;;;;2.92;2.63;;;;;;;;;;5059615;28;20237;-79
2022/03/15 05:53:50;;;;;;;4.38;2.58;;;;;;;;;;5059385;28;20206;-80
2022/03/15 05:56:18;;;;;;;2.42;1.90;;;;;;;;;;5060141;28;20205;-80
2022/03/15 05:58:45;;;;;;;2.83;2.63;;;;;;;;;;5059340;28;20228;-80
2022/03/15 06:01:12;;;;;;;2.30;2.20;;;;;;;;;;5059747;28;20215;-80
2022/03/15 06:03:40;;;;;;;2.72;2.53;;;;;;;;;;5059535;28;20232;-80
2022/03/15 06:06:09;;;;;;;2.40;2.20;;;;;;;;;;5060913;28;20228;-81
2022/03/15 06:08:37;;;;;;;2.53;2.33;;;;;;;;;;5060520;28;20732;-81
2022/03/15 06:11:04;;;;;;;2.08;1.98;;;;;;;;;;5061827;28;20236;-79
2022/03/15 06:13:31;;;;;;;1.63;1.52;;;;;;;;;;5060746;28;20213;-80
2022/03/15 06:15:59;;;;;;;1.90;1.80;;;;;;;;;;5058286;28;20202;-80
2022/03/15 06:18:26;;;;;;;2.08;1.80;;;;;;;;;;5065199;28;20239;-80
2022/03/15 06:20:54;;;;;;;2.22;2.03;;;;;;;;;;5059996;28;20204;-78
2022/03/15 06:23:24;;;;;;;1.70;1.60;;;;;;;;;;5059881;28;20205;-79
2022/03/15 06:25:51;;;;;;;2.53;2.30;;;;;;;;;;5061034;28;20257;-79
2022/03/15 06:28:19;;;;;;;3.05;2.45;;;;;;;;;;5061912;28;20284;-79
2022/03/15 06:30:46;;;;;;;2.55;2.35;;;;;;;;;;5076094;28;20205;-79
2022/03/15 06:33:14;;;;;;;2.40;2.17;;;;;;;;;;5071671;28;20213;-80
2022/03/15 06:35:42;;;;;;;2.20;2.10;;;;;;;;;;5085978;28;20200;-80
2022/03/15 06:38:11;;;;;;;2.25;2.05;;;;;;;;;;5087955;28;20260;-80
2022/03/15 06:40:41;;;;;;;2.63;2.42;;;;;;;;;;5071626;28;20209;-79
2022/03/15 06:43:13;;;;;;;3.45;3.15;;;;;;;;;;5071429;28;20274;-79
2022/03/15 06:45:42;;;;;;;3.58;3.28;;;;;;;;;;5070513;28;20214;-79
2022/03/15 06:48:09;;;;;;;3.38;3.08;;;;;;;;;;5061914;28;20690;-79
2022/03/15 06:50:37;;;;;;;4.57;4.18;;;;;;;;;;5062301;28;20210;-79
2022/03/15 06:53:05;;;;;;;5.35;4.88;;;;;;;;;;5062336;28;20201;-79
2022/03/15 06:55:32;;;;;;;4.90;4.50;;;;;;;;;;5061898;28;20209;-79
2022/03/15 06:58:01;;;;;;;5.15;4.32;;;;;;;;;;5061330;28;20236;-79
2022/03/15 07:00:28;;;;;;;5.03;4.53;;;;;;;;;;5061487;28;20655;-79
2022/03/15 07:02:56;;;;;;;3.88;3.58;;;;;;;;;;5058581;28;20205;-80
2022/03/15 07:05:24;;;;;;;3.97;3.45;;;;;;;;;;5073768;28;20239;-80
2022/03/15 07:07:51;;;;;;;2.50;2.30;;;;;;;;;;5073635;28;20224;-79
2022/03/15 07:10:20;;;;;;;3.08;2.80;;;;;;;;;;5084706;28;20209;-79
2022/03/15 07:12:48;;;;;;;2.55;2.35;;;;;;;;;;5085454;28;20228;-79
2022/03/15 07:15:17;;;;;;;2.25;2.05;;;;;;;;;;5087007;28;20260;-79
2022/03/15 07:17:51;;;;;;;1.88;1.77;;;;;;;;;;5091316;28;20245;-79
2022/03/15 07:20:18;;;;;;;2.20;2.10;;;;;;;;;;5090766;28;20267;-79
2022/03/15 07:22:46;;;;;;;2.20;2.10;;;;;;;;;;5081620;28;20209;-79
2022/03/15 07:25:13;;;;;;;3.28;2.97;;;;;;;;;;5082103;28;20214;-79
2022/03/15 07:27:41;;;;;;;2.80;2.60;;;;;;;;;;5081072;28;20687;-80
2022/03/15 07:30:10;;;;;;;2.67;2.47;;;;;;;;;;5082986;28;20219;-80
2022/03/15 07:32:39;;;;;;;2.85;2.65;;;;;;;;;;5080479;28;20201;-79
2022/03/15 07:35:07;;;;;;;2.90;2.65;;;;;;;;;;5074633;28;20693;-80
2022/03/15 07:37:35;;;;;;;3.00;2.70;;;;;;;;;;5080383;28;20225;-80
2022/03/15 07:40:03;;;;;;;2.85;2.55;;;;;;;;;;5080000;28;20201;-80
2022/03/15 07:42:30;;;;;;;2.75;2.55;;;;;;;;;;5078667;28;20205;-80
2022/03/15 07:44:57;;;;;;;3.40;3.10;;;;;;;;;;5061037;28;20209;-80
2022/03/15 07:47:25;;;;;;;2.85;2.65;;;;;;;;;;5061260;28;20230;-79
2022/03/15 07:49:53;;;;;;;3.13;2.83;;;;;;;;;;5059871;28;20288;-79
2022/03/15 07:52:21;;;;;;;4.20;3.90;;;;;;;;;;5059660;28;20205;-80
2022/03/15 07:54:48;;;;;;;3.65;3.35;;;;;;;;;;5059552;28;20206;-80
2022/03/15 07:57:15;;;;;;;4.97;3.72;;;;;;;;;;5074415;28;20244;-80
2022/03/15 07:59:43;;;;;;;3.20;2.67;;;;;;;;;;5075895;28;20211;-79
2022/03/15 08:02:11;;;;;;;2.95;2.75;;;;;;;;;;5076133;28;20216;-79
2022/03/15 08:04:38;;;;;;;3.15;2.80;;;;;;;;;;5076054;28;20236;-79
2022/03/15 08:07:07;;;;;;;3.75;2.65;;;;;;;;;;5075988;28;20220;-79
2022/03/15 08:09:34;;;;;;;3.25;2.95;;;;;;;;;;5075370;28;20224;-79
2022/03/15 08:12:01;;;;;;;2.70;2.50;;;;;;;;;;5074505;28;20251;-79
2022/03/15 08:14:29;;;;;;;2.80;2.60;;;;;;;;;;5057136;28;20205;-79
2022/03/15 08:16:56;;;;;;;4.03;2.83;;;;;;;;;;5055155;28;20284;-80
2022/03/15 08:19:23;;;;;;;3.95;2.80;;;;;;;;;;5072959;28;20227;-80
2022/03/15 08:21:51;;;;;;;2.75;2.55;;;;;;;;;;5076175;28;20211;-80
2022/03/15 08:24:22;;;;;;;3.38;3.00;;;;;;;;;;5078781;28;20345;-80
2022/03/15 08:26:49;;;;;;;3.40;3.10;;;;;;;;;;5081302;28;20700;-80
2022/03/15 08:29:16;;;;;;;3.05;2.85;;;;;;;;;;5080255;28;20236;-80
2022/03/15 08:31:44;;;;;;;4.15;3.47;;;;;;;;;;5079570;28;20201;-80
2022/03/15 08:34:11;;;;;;;4.65;4.07;;;;;;;;;;5077073;28;20205;-80
2022/03/15 08:36:38;;;;;;;4.30;3.70;;;;;;;;;;5080936;28;20208;-80
2022/03/15 08:39:06;;;;;;;4.45;4.05;;;;;;;;;;5079354;28;20590;-79
2022/03/15 08:41:34;;;;;;;3.92;3.33;;;;;;;;;;5079389;28;20211;-80
2022/03/15 08:44:02;;;;;;;3.30;3.00;;;;;;;;;;5076673;28;20201;-79
2022/03/15 08:46:29;;;;;;;2.88;2.25;;;;;;;;;;5071030;28;20221;-80
2022/03/15 08:48:57;;;;;;;3.83;3.53;;;;;;;;;;5079520;28;20278;-80
2022/03/15 08:51:25;;;;;;;3.35;3.10;;;;;;;;;;5079161;28;20291;-80
2022/03/15 08:53:52;;;;;;;3.47;3.17;;;;;;;;;;5079009;28;20236;-80
2022/03/15 08:56:19;;;;;;;2.72;2.53;;;;;;;;;;5080784;28;20208;-80
2022/03/15 08:58:48;;;;;;;2.53;2.33;;;;;;;;;;5078944;28;20229;-79
2022/03/15 09:01:16;;;;;;;3.70;3.40;;;;;;;;;;5079369;28;20656;-79
2022/03/15 09:03:43;;;;;;;3.55;3.25;;;;;;;;;;5075843;28;20241;-80
2022/03/15 09:06:10;;;;;;;3.17;2.78;;;;;;;;;;5077373;28;20232;-79
2022/03/15 09:08:38;;;;;;;3.30;3.10;;;;;;;;;;5063948;28;20225;-79
2022/03/15 09:11:05;;;;;;;3.08;2.88;;;;;;;;;;5061749;28;20740;-79
2022/03/15 09:13:33;;;;;;;3.35;3.00;;;;;;;;;;5065228;28;20216;-80
2022/03/15 09:16:02;;;;;;;4.00;3.60;;;;;;;;;;5081402;28;20604;-79
2022/03/15 09:18:30;;;;;;;4.05;3.75;;;;;;;;;;5081271;28;20267;-79
2022/03/15 09:20:57;;;;;;;3.47;3.17;;;;;;;;;;5080298;28;20731;-79
2022/03/15 09:23:25;;;;;;;3.13;2.92;;;;;;;;;;5079920;28;20205;-81
2022/03/15 09:25:52;;;;;;;3.30;3.00;;;;;;;;;;5080521;28;20208;-80
2022/03/15 09:28:19;;;;;;;3.13;2.78;;;;;;;;;;5081503;28;20338;-78
2022/03/15 09:30:47;;;;;;;2.42;2.22;;;;;;;;;;5079794;28;20647;-79
2022/03/15 09:33:16;;;;;;;2.92;2.42;;;;;;;;;;5075762;28;20213;-79
2022/03/15 09:35:44;;;;;;;2.50;2.30;;;;;;;;;;5067805;28;20205;-79
2022/03/15 09:38:11;;;;;;;2.17;2.08;;;;;;;;;;5074734;28;20652;-79
2022/03/15 09:40:39;;;;;;;2.55;2.35;;;;;;;;;;5059415;28;20205;-79
2022/03/15 09:43:07;;;;;;;2.80;2.60;;;;;;;;;;5062483;28;20684;-79
2022/03/15 09:45:36;;;;;;;3.03;2.78;;;;;;;;;;5061988;28;20644;-78
2022/03/15 09:48:11;;;;;;;5.03;3.33;;;;;;;;;;5061829;28;20233;-79
2022/03/15 09:50:42;;;;;;;3.47;3.17;;;;;;;;;;5060705;28;20212;-79
2022/03/15 09:53:10;;;;;;;4.80;3.60;;;;;;;;;;5060832;28;20224;-79
2022/03/15 09:55:40;;;;;;;3.20;2.67;;;;;;;;;;5064535;28;20206;-79
2022/03/15 09:58:07;;;;;;;2.83;2.60;;;;;;;;;;5066360;28;20221;-78
2022/03/15 10:00:37;;;;;;;2.20;2.00;;;;;;;;;;5080349;28;20524;-78
2022/03/15 10:03:05;;;;;;;3.70;3.40;;;;;;;;;;5078679;28;20272;-80
2022/03/15 10:05:32;;;;;;;2.85;2.65;;;;;;;;;;5060521;28;20220;-79
2022/03/15 10:08:01;;;;;;;2.38;2.17;;;;;;;;;;5066328;28;20232;-79
2022/03/15 10:10:29;;;;;;;2.90;2.60;;;;;;;;;;5066693;28;20296;-79
2022/03/15 10:12:57;;;;;;;3.30;3.00;;;;;;;;;;5053086;28;20209;-80
2022/03/15 10:15:25;;;;;;;3.10;2.72;;;;;;;;;;5060062;28;20209;-79
2022/03/15 10:17:55;;;;;;;3.55;3.15;;;;;;;;;;5059839;28;20225;-80
2022/03/15 10:20:28;;;;;;;3.10;2.90;;;;;;;;;;5061337;28;20236;-79
2022/03/15 10:22:58;;;;;;;2.90;2.70;;;;;;;;;;5059201;28;20259;-79
2022/03/15 10:25:28;;;;;;;3.38;2.63;;;;;;;;;;5059581;28;20666;-79
2022/03/15 10:27:58;;;;;;;2.85;2.65;;;;;;;;;;5059880;28;20233;-79
2022/03/15 10:30:27;;;;;;;3.28;2.80;;;;;;;;;;5059666;28;20628;-79
2022/03/15 10:32:56;;;;;;;2.58;2.38;;;;;;;;;;5057883;28;20205;-80
2022/03/15 10:35:26;;;;;;;2.90;2.70;;;;;;;;;;5060838;28;20205;-80
2022/03/15 10:37:56;;;;;;;4.28;3.13;;;;;;;;;;5059617;28;20217;-79
2022/03/15 10:40:35;;;;;;;4.28;3.40;;;;;;;;;;5059965;28;20201;-78
2022/03/15 10:43:08;;;;;;;2.50;2.30;;;;;;;;;;5059780;28;20235;-79
2022/03/15 10:45:37;;;;;;;3.30;3.00;;;;;;;;;;5063091;28;20301;-79
2022/03/15 10:48:17;;;;;;;3.20;3.00;;;;;;;;;;5060109;28;20681;-79
2022/03/15 10:50:53;;;;;;;2.90;2.70;;;;;;;;;;5054202;28;20227;-79
2022/03/15 10:53:20;;;;;;;3.72;3.38;;;;;;;;;;5058459;28;20596;-80
2022/03/15 10:55:51;;;;;;;2.50;2.30;;;;;;;;;;5059613;28;20304;-80
2022/03/15 10:58:24;;;;;;;2.80;2.20;;;;;;;;;;5058265;28;20237;-79
2022/03/15 11:00:55;;;;;;;3.42;3.13;;;;;;;;;;5058139;28;20205;-79
2022/03/15 11:03:29;;;;;;;2.80;2.60;;;;;;;;;;5058542;28;20205;-79
2022/03/15 11:06:02;;;;;;;3.55;2.75;;;;;;;;;;5066371;28;20211;-79
2022/03/15 11:08:30;;;;;;;2.42;2.22;;;;;;;;;;5062530;28;20244;-79
2022/03/15 11:11:06;;;;;;;2.47;2.25;;;;;;;;;;5061752;28;20202;-80
2022/03/15 11:13:33;;;;;;;3.00;2.13;;;;;;;;;;5067901;28;20669;-80
2022/03/15 11:16:02;;;;;;;3.40;3.10;;;;;;;;;;5061530;28;20201;-80
2022/03/15 11:18:30;;;;;;;3.75;3.10;;;;;;;;;;5074572;28;20557;-80
2022/03/15 11:21:00;;;;;;;3.05;2.60;;;;;;;;;;5062502;28;20676;-80
2022/03/15 11:23:28;;;;;;;3.63;3.28;;;;;;;;;;5053220;28;20244;-81
2022/03/15 11:26:02;;;;;;;3.78;3.40;;;;;;;;;;5054950;28;20329;-81
2022/03/15 11:28:32;;;;;;;3.47;3.13;;;;;;;;;;5048748;28;20320;-81
2022/03/15 11:31:00;;;;;;;3.78;3.47;;;;;;;;;;5059593;28;20205;-80
2022/03/15 11:33:29;;;;;;;3.35;3.05;;;;;;;;;;5055959;28;20205;-80
2022/03/15 11:35:56;;;;;;;3.67;3.38;;;;;;;;;;5074666;28;20299;-81
2022/03/15 11:38:24;;;;;;;4.45;3.72;;;;;;;;;;5074780;28;20233;-81
2022/03/15 11:40:54;;;;;;;6.45;3.00;;;;;;;;;;5073188;28;20216;-83
2022/03/15 11:43:37;;;;;;;3.50;2.88;;;;;;;;;;5065094;28;20316;-81
2022/03/15 11:46:11;;;;;;;4.07;3.45;;;;;;;;;;5053897;28;20212;-81
2022/03/15 11:48:47;;;;;;;3.30;3.00;;;;;;;;;;5064072;28;20239;-81
2022/03/15 11:51:25;;;;;;;4.35;3.75;;;;;;;;;;5074052;28;20197;-80
2022/03/15 11:54:01;;;;;;;3.75;3.35;;;;;;;;;;5076702;28;20208;-81
2022/03/15 11:56:37;;;;;;;3.38;3.03;;;;;;;;;;5052140;28;20205;-81
2022/03/15 11:59:06;;;;;;;3.53;2.67;;;;;;;;;;5060209;28;20223;-81
2022/03/15 12:01:44;;;;;;;2.63;2.42;;;;;;;;;;5062043;28;20205;-81
2022/03/15 12:04:12;;;;;;;3.63;2.95;;;;;;;;;;5065166;28;20208;-81
2022/03/15 12:06:48;;;;;;;2.88;2.67;;;;;;;;;;5059812;28;20207;-80
2022/03/15 12:09:16;;;;;;;3.97;3.30;;;;;;;;;;5074528;28;20228;-81
2022/03/15 12:11:45;;;;;;;4.10;3.63;;;;;;;;;;5058382;28;20205;-80
2022/03/15 12:14:19;;;;;;;3.60;3.28;;;;;;;;;;5069828;28;20263;-80
2022/03/15 12:16:54;;;;;;;3.10;2.88;;;;;;;;;;5077344;28;20564;-81
2022/03/15 12:19:35;;;;;;;4.32;3.55;;;;;;;;;;5078041;28;20718;-81
2022/03/15 12:22:07;;;;;;;2.95;2.72;;;;;;;;;;5054615;28;20228;-80
2022/03/15 12:24:37;;;;;;;2.95;2.75;;;;;;;;;;5059257;28;20217;-81
2022/03/15 12:27:07;;;;;;;3.35;2.47;;;;;;;;;;5058989;28;20297;-81
2022/03/15 12:29:37;;;;;;;3.00;2.47;;;;;;;;;;5071347;28;20621;-80
2022/03/15 12:32:13;;;;;;;3.33;2.53;;;;;;;;;;5077362;28;20205;-81
2022/03/15 12:34:44;;;;;;;3.30;2.92;;;;;;;;;;5072938;28;20292;-80
2022/03/15 12:37:12;;;;;;;3.45;3.00;;;;;;;;;;5067499;28;20201;-80
2022/03/15 12:39:39;;;;;;;3.35;3.13;;;;;;;;;;5059598;28;20210;-80
2022/03/15 12:42:09;;;;;;;2.67;2.47;;;;;;;;;;5060268;28;20267;-80
2022/03/15 12:44:48;;;;;;;3.25;2.95;;;;;;;;;;5079825;28;20676;-80
2022/03/15 12:47:18;;;;;;;4.15;2.53;;;;;;;;;;5074629;28;20283;-80
2022/03/15 12:50:07;;;;;;;2.03;1.80;;;;;;;;;;5057554;28;20232;-80
2022/03/15 12:52:42;;;;;;;2.40;2.20;;;;;;;;;;5066463;28;20670;-81
2022/03/15 12:55:18;;;;;;;2.45;2.17;;;;;;;;;;5061949;28;20259;-80
2022/03/15 12:57:46;;;;;;;3.20;2.40;;;;;;;;;;5062868;28;20229;-80
2022/03/15 13:00:18;;;;;;;1.90;1.80;;;;;;;;;;5061390;28;20201;-80
2022/03/15 13:02:48;;;;;;;2.33;2.13;;;;;;;;;;5060857;28;20206;-81
2022/03/15 13:05:18;;;;;;;3.30;2.95;;;;;;;;;;5060679;28;20267;-81
2022/03/15 13:07:51;;;;;;;2.75;2.50;;;;;;;;;;5062023;28;20241;-81
2022/03/15 13:10:26;;;;;;;4.30;3.42;;;;;;;;;;5056008;28;20697;-80
2022/03/15 13:12:55;;;;;;;3.58;2.90;;;;;;;;;;5061979;28;20205;-80
2022/03/15 13:15:25;;;;;;;3.75;2.50;;;;;;;;;;5063021;28;20209;-80
2022/03/15 13:17:55;;;;;;;5.30;3.28;;;;;;;;;;5063219;28;20256;-81
2022/03/15 13:20:25;;;;;;;2.85;2.60;;;;;;;;;;5062883;28;20216;-80
2022/03/15 13:23:01;;;;;;;2.95;2.75;;;;;;;;;;5063341;28;20213;-80
2022/03/15 13:25:43;;;;;;;3.38;3.08;;;;;;;;;;5063178;28;20265;-79
2022/03/15 13:28:24;;;;;;;3.53;3.22;;;;;;;;;;5059245;28;20226;-80
2022/03/15 13:30:57;;;;;;;3.45;2.47;;;;;;;;;;5064123;28;20263;-80
2022/03/15 13:33:35;;;;;;;2.50;2.30;;;;;;;;;;5064278;28;20213;-80
2022/03/15 13:36:05;;;;;;;2.15;1.95;;;;;;;;;;5076583;28;20204;-80
2022/03/15 13:38:36;;;;;;;1.85;1.75;;;;;;;;;;5077434;28;20224;-80
2022/03/15 13:41:08;;;;;;;2.45;2.25;;;;;;;;;;5076153;28;20300;-80
2022/03/15 13:43:38;;;;;;;1.75;1.65;;;;;;;;;;5064711;28;20236;-80
2022/03/15 13:46:08;;;;;;;1.70;1.60;;;;;;;;;;5063889;28;20206;-80
2022/03/15 13:48:38;;;;;;;2.65;1.83;;;;;;;;;;5052597;28;20248;-81
2022/03/15 13:51:10;;;;;;;2.10;2.00;;;;;;;;;;5049788;28;20259;-80
2022/03/15 13:53:38;;;;;;;2.13;1.92;;;;;;;;;;5055938;28;20202;-81
2022/03/15 13:56:14;;;;;;;3.08;2.78;;;;;;;;;;5055998;28;20212;-80
2022/03/15 13:58:45;;;;;;;2.70;2.45;;;;;;;;;;5058509;28;20229;-80
2022/03/15 14:01:15;;;;;;;2.42;1.80;;;;;;;;;;5059123;28;20245;-80
2022/03/15 14:03:43;;;;;;;1.70;1.60;;;;;;;;;;5061685;28;20569;-80
2022/03/15 14:06:12;;;;;;;1.88;1.60;;;;;;;;;;5077315;28;20205;-80
2022/03/15 14:08:48;;;;;;;2.20;2.08;;;;;;;;;;5060061;28;20261;-80
2022/03/15 14:11:18;;;;;;;2.15;2.05;;;;;;;;;;5061610;28;20270;-80
2022/03/15 14:14:05;;;;;;;2.15;1.95;;;;;;;;;;5061900;28;20209;-80
2022/03/15 14:16:40;;;;;;;1.90;1.80;;;;;;;;;;5058642;28;20261;-79
2022/03/15 14:19:10;;;;;;;7.25;3.28;;;;;;;;;;5059128;28;20267;-79
2022/03/15 14:21:41;;;;;;;1.90;1.80;;;;;;;;;;5060021;28;20205;-80
2022/03/15 14:24:21;;;;;;;2.08;1.88;;;;;;;;;;5056899;28;20212;-79
2022/03/15 14:26:50;;;;;;;1.88;1.63;;;;;;;;;;5057569;28;20227;-79
2022/03/15 14:29:21;;;;;;;1.85;1.73;;;;;;;;;;5056138;28;20498;-79
2022/03/15 14:32:01;;;;;;;1.77;1.67;;;;;;;;;;5056272;28;20666;-79
2022/03/15 14:34:29;;;;;;;3.33;2.38;;;;;;;;;;5062746;28;20209;-79
2022/03/15 14:37:08;;;;;;;3.03;2.15;;;;;;;;;;5074492;28;20304;-78
2022/03/15 14:39:37;;;;;;;1.77;1.67;;;;;;;;;;5050182;28;20210;-78
2022/03/15 14:42:06;;;;;;;1.90;1.80;;;;;;;;;;5054133;28;20232;-79
2022/03/15 14:44:34;;;;;;;1.63;1.52;;;;;;;;;;5056304;28;20201;-79
2022/03/15 14:47:06;;;;;;;2.13;1.98;;;;;;;;;;5055021;28;20206;-81
2022/03/15 14:49:33;;;;;;;1.63;1.52;;;;;;;;;;5055312;28;20263;-81
2022/03/15 14:52:02;;;;;;;1.90;1.80;;;;;;;;;;5055830;28;20209;-81
2022/03/15 14:54:29;;;;;;;1.60;1.50;;;;;;;;;;5054870;28;20205;-81